sensor_id;sensor_type;location;lat;lon;timestamp;P1;durP1;ratioP1;P2;durP2;ratioP2
69310;SDS011;56430;48.154;16.458;2023-03-04T00:00:20;23.53;;;9.10;;
69310;SDS011;56430;48.154;16.458;2023-03-04T00:02:47;24.35;;;9.48;;
69310;SDS011;56430;48.154;16.458;2023-03-04T00:05:13;22.92;;;8.90;;
69310;SDS011;56430;48.154;16.458;2023-03-04T00:07:40;24.83;;;9.48;;
69310;SDS011;56430;48.154;16.458;2023-03-04T00:10:08;24.85;;;9.05;;
69310;SDS011;56430;48.154;16.458;2023-03-04T00:12:35;32.10;;;11.93;;
69310;SDS011;56430;48.154;16.458;2023-03-04T00:15:03;27.55;;;10.77;;
69310;SDS011;56430;48.154;16.458;2023-03-04T00:17:30;31.13;;;10.60;;
69310;SDS011;56430;48.154;16.458;2023-03-04T00:19:57;26.85;;;10.63;;
69310;SDS011;56430;48.154;16.458;2023-03-04T00:22:24;28.42;;;10.90;;
69310;SDS011;56430;48.154;16.458;2023-03-04T00:24:51;28.53;;;10.03;;
69310;SDS011;56430;48.154;16.458;2023-03-04T00:27:18;29.02;;;10.50;;
69310;SDS011;56430;48.154;16.458;2023-03-04T00:29:45;29.38;;;9.88;;
69310;SDS011;56430;48.154;16.458;2023-03-04T00:32:13;28.48;;;10.80;;
69310;SDS011;56430;48.154;16.458;2023-03-04T00:34:42;26.23;;;10.20;;
69310;SDS011;56430;48.154;16.458;2023-03-04T00:37:09;30.33;;;11.03;;
69310;SDS011;56430;48.154;16.458;2023-03-04T00:39:36;25.65;;;10.10;;
69310;SDS011;56430;48.154;16.458;2023-03-04T00:42:03;28.15;;;10.60;;
69310;SDS011;56430;48.154;16.458;2023-03-04T00:44:30;27.55;;;10.32;;
69310;SDS011;56430;48.154;16.458;2023-03-04T00:46:57;26.35;;;9.25;;
69310;SDS011;56430;48.154;16.458;2023-03-04T00:49:25;26.60;;;10.07;;
69310;SDS011;56430;48.154;16.458;2023-03-04T00:51:52;26.55;;;9.75;;
69310;SDS011;56430;48.154;16.458;2023-03-04T00:54:20;25.92;;;9.68;;
69310;SDS011;56430;48.154;16.458;2023-03-04T00:56:47;27.58;;;9.75;;
69310;SDS011;56430;48.154;16.458;2023-03-04T00:59:14;28.25;;;10.35;;
69310;SDS011;56430;48.154;16.458;2023-03-04T01:01:41;33.43;;;10.30;;
69310;SDS011;56430;48.154;16.458;2023-03-04T01:04:08;29.45;;;10.80;;
69310;SDS011;56430;48.154;16.458;2023-03-04T01:06:36;25.55;;;10.18;;
69310;SDS011;56430;48.154;16.458;2023-03-04T01:09:03;31.55;;;11.18;;
69310;SDS011;56430;48.154;16.458;2023-03-04T01:11:30;27.58;;;11.13;;
69310;SDS011;56430;48.154;16.458;2023-03-04T01:13:57;33.03;;;12.33;;
69310;SDS011;56430;48.154;16.458;2023-03-04T01:16:23;35.63;;;14.23;;
69310;SDS011;56430;48.154;16.458;2023-03-04T01:18:50;44.83;;;13.35;;
69310;SDS011;56430;48.154;16.458;2023-03-04T01:21:17;35.85;;;13.48;;
69310;SDS011;56430;48.154;16.458;2023-03-04T01:23:46;30.98;;;11.73;;
69310;SDS011;56430;48.154;16.458;2023-03-04T01:26:13;32.70;;;12.43;;
69310;SDS011;56430;48.154;16.458;2023-03-04T01:28:40;33.60;;;12.27;;
69310;SDS011;56430;48.154;16.458;2023-03-04T01:31:06;33.63;;;12.38;;
69310;SDS011;56430;48.154;16.458;2023-03-04T01:33:33;29.67;;;11.55;;
69310;SDS011;56430;48.154;16.458;2023-03-04T01:36:00;34.10;;;12.57;;
69310;SDS011;56430;48.154;16.458;2023-03-04T01:38:27;31.43;;;11.30;;
69310;SDS011;56430;48.154;16.458;2023-03-04T01:40:55;33.30;;;12.00;;
69310;SDS011;56430;48.154;16.458;2023-03-04T01:43:23;34.50;;;11.75;;
69310;SDS011;56430;48.154;16.458;2023-03-04T01:45:51;30.30;;;11.55;;
69310;SDS011;56430;48.154;16.458;2023-03-04T01:48:19;30.92;;;11.18;;
69310;SDS011;56430;48.154;16.458;2023-03-04T01:50:47;30.63;;;10.90;;
69310;SDS011;56430;48.154;16.458;2023-03-04T01:53:15;27.52;;;10.15;;
69310;SDS011;56430;48.154;16.458;2023-03-04T01:55:43;33.63;;;11.23;;
69310;SDS011;56430;48.154;16.458;2023-03-04T01:58:12;31.65;;;11.63;;
69310;SDS011;56430;48.154;16.458;2023-03-04T02:00:39;29.88;;;11.75;;
69310;SDS011;56430;48.154;16.458;2023-03-04T02:03:06;28.50;;;11.57;;
69310;SDS011;56430;48.154;16.458;2023-03-04T02:05:34;29.75;;;11.20;;
69310;SDS011;56430;48.154;16.458;2023-03-04T02:08:01;28.20;;;11.25;;
69310;SDS011;56430;48.154;16.458;2023-03-04T02:10:29;30.77;;;11.43;;
69310;SDS011;56430;48.154;16.458;2023-03-04T02:12:56;30.38;;;11.48;;
69310;SDS011;56430;48.154;16.458;2023-03-04T02:15:25;28.03;;;10.27;;
69310;SDS011;56430;48.154;16.458;2023-03-04T02:17:52;32.67;;;11.25;;
69310;SDS011;56430;48.154;16.458;2023-03-04T02:20:24;32.10;;;11.32;;
69310;SDS011;56430;48.154;16.458;2023-03-04T02:22:56;31.08;;;10.88;;
69310;SDS011;56430;48.154;16.458;2023-03-04T02:25:26;29.13;;;10.90;;
69310;SDS011;56430;48.154;16.458;2023-03-04T02:27:56;26.43;;;9.93;;
69310;SDS011;56430;48.154;16.458;2023-03-04T02:30:23;23.50;;;10.07;;
69310;SDS011;56430;48.154;16.458;2023-03-04T02:32:51;30.63;;;10.68;;
69310;SDS011;56430;48.154;16.458;2023-03-04T02:35:18;27.08;;;9.95;;
69310;SDS011;56430;48.154;16.458;2023-03-04T02:37:45;33.70;;;10.43;;
69310;SDS011;56430;48.154;16.458;2023-03-04T02:40:13;30.67;;;10.07;;
69310;SDS011;56430;48.154;16.458;2023-03-04T02:42:42;30.05;;;10.40;;
69310;SDS011;56430;48.154;16.458;2023-03-04T02:47:52;26.88;;;10.10;;
69310;SDS011;56430;48.154;16.458;2023-03-04T02:50:18;27.23;;;9.63;;
69310;SDS011;56430;48.154;16.458;2023-03-04T02:52:46;28.77;;;9.63;;
69310;SDS011;56430;48.154;16.458;2023-03-04T02:55:12;28.00;;;10.25;;
69310;SDS011;56430;48.154;16.458;2023-03-04T02:57:39;26.70;;;10.52;;
69310;SDS011;56430;48.154;16.458;2023-03-04T03:00:07;30.73;;;10.75;;
69310;SDS011;56430;48.154;16.458;2023-03-04T03:02:34;30.85;;;10.20;;
69310;SDS011;56430;48.154;16.458;2023-03-04T03:05:02;31.70;;;11.30;;
69310;SDS011;56430;48.154;16.458;2023-03-04T03:07:29;36.85;;;11.50;;
69310;SDS011;56430;48.154;16.458;2023-03-04T03:09:56;30.45;;;10.77;;
69310;SDS011;56430;48.154;16.458;2023-03-04T03:12:23;33.10;;;12.18;;
69310;SDS011;56430;48.154;16.458;2023-03-04T03:14:50;31.65;;;11.23;;
69310;SDS011;56430;48.154;16.458;2023-03-04T03:17:17;31.27;;;11.63;;
69310;SDS011;56430;48.154;16.458;2023-03-04T03:19:44;31.35;;;11.55;;
69310;SDS011;56430;48.154;16.458;2023-03-04T03:22:12;33.67;;;11.88;;
69310;SDS011;56430;48.154;16.458;2023-03-04T03:24:39;32.47;;;11.63;;
69310;SDS011;56430;48.154;16.458;2023-03-04T03:27:06;25.42;;;9.50;;
69310;SDS011;56430;48.154;16.458;2023-03-04T03:29:33;27.80;;;10.97;;
69310;SDS011;56430;48.154;16.458;2023-03-04T03:31:59;30.38;;;10.68;;
69310;SDS011;56430;48.154;16.458;2023-03-04T03:34:26;27.65;;;10.45;;
69310;SDS011;56430;48.154;16.458;2023-03-04T03:36:53;28.63;;;10.30;;
69310;SDS011;56430;48.154;16.458;2023-03-04T03:39:22;32.67;;;10.65;;
69310;SDS011;56430;48.154;16.458;2023-03-04T03:41:48;28.60;;;10.30;;
69310;SDS011;56430;48.154;16.458;2023-03-04T03:44:15;28.88;;;10.18;;
69310;SDS011;56430;48.154;16.458;2023-03-04T03:46:42;30.20;;;10.80;;
69310;SDS011;56430;48.154;16.458;2023-03-04T03:49:09;26.08;;;10.30;;
69310;SDS011;56430;48.154;16.458;2023-03-04T03:51:37;30.67;;;10.48;;
69310;SDS011;56430;48.154;16.458;2023-03-04T03:54:04;27.93;;;10.40;;
69310;SDS011;56430;48.154;16.458;2023-03-04T03:59:00;29.38;;;10.45;;
69310;SDS011;56430;48.154;16.458;2023-03-04T04:01:27;27.60;;;9.85;;
69310;SDS011;56430;48.154;16.458;2023-03-04T04:03:54;32.28;;;9.88;;
69310;SDS011;56430;48.154;16.458;2023-03-04T04:06:20;29.03;;;10.20;;
69310;SDS011;56430;48.154;16.458;2023-03-04T04:08:47;34.90;;;10.38;;
69310;SDS011;56430;48.154;16.458;2023-03-04T04:11:14;27.85;;;10.98;;
69310;SDS011;56430;48.154;16.458;2023-03-04T04:13:41;29.02;;;10.25;;
69310;SDS011;56430;48.154;16.458;2023-03-04T04:16:09;29.05;;;11.07;;
69310;SDS011;56430;48.154;16.458;2023-03-04T04:18:36;32.27;;;10.97;;
69310;SDS011;56430;48.154;16.458;2023-03-04T04:21:04;30.20;;;11.00;;
69310;SDS011;56430;48.154;16.458;2023-03-04T04:26:34;29.63;;;10.40;;
69310;SDS011;56430;48.154;16.458;2023-03-04T04:29:01;29.70;;;10.20;;
69310;SDS011;56430;48.154;16.458;2023-03-04T04:31:30;29.60;;;9.83;;
69310;SDS011;56430;48.154;16.458;2023-03-04T04:33:56;26.67;;;10.15;;
69310;SDS011;56430;48.154;16.458;2023-03-04T04:36:23;27.40;;;9.52;;
69310;SDS011;56430;48.154;16.458;2023-03-04T04:38:50;35.30;;;11.48;;
69310;SDS011;56430;48.154;16.458;2023-03-04T04:41:18;24.50;;;9.40;;
69310;SDS011;56430;48.154;16.458;2023-03-04T04:43:45;31.00;;;10.33;;
69310;SDS011;56430;48.154;16.458;2023-03-04T04:46:12;24.25;;;9.65;;
69310;SDS011;56430;48.154;16.458;2023-03-04T04:48:41;29.45;;;10.25;;
69310;SDS011;56430;48.154;16.458;2023-03-04T04:51:08;28.02;;;10.55;;
69310;SDS011;56430;48.154;16.458;2023-03-04T04:53:35;27.27;;;10.40;;
69310;SDS011;56430;48.154;16.458;2023-03-04T04:56:07;29.53;;;10.57;;
69310;SDS011;56430;48.154;16.458;2023-03-04T04:58:34;23.77;;;8.45;;
69310;SDS011;56430;48.154;16.458;2023-03-04T05:01:01;26.40;;;10.18;;
69310;SDS011;56430;48.154;16.458;2023-03-04T05:03:29;24.75;;;9.57;;
69310;SDS011;56430;48.154;16.458;2023-03-04T05:05:57;26.15;;;9.32;;
69310;SDS011;56430;48.154;16.458;2023-03-04T05:08:24;27.83;;;9.97;;
69310;SDS011;56430;48.154;16.458;2023-03-04T05:10:51;27.48;;;9.52;;
69310;SDS011;56430;48.154;16.458;2023-03-04T05:13:18;25.50;;;9.90;;
69310;SDS011;56430;48.154;16.458;2023-03-04T05:18:48;26.27;;;10.00;;
69310;SDS011;56430;48.154;16.458;2023-03-04T05:21:16;23.67;;;8.83;;
69310;SDS011;56430;48.154;16.458;2023-03-04T05:23:43;24.52;;;9.75;;
69310;SDS011;56430;48.154;16.458;2023-03-04T05:26:12;25.98;;;10.10;;
69310;SDS011;56430;48.154;16.458;2023-03-04T05:28:39;26.52;;;9.65;;
69310;SDS011;56430;48.154;16.458;2023-03-04T05:31:06;24.77;;;9.20;;
69310;SDS011;56430;48.154;16.458;2023-03-04T05:33:33;27.03;;;9.97;;
69310;SDS011;56430;48.154;16.458;2023-03-04T05:36:00;29.70;;;9.80;;
69310;SDS011;56430;48.154;16.458;2023-03-04T05:38:29;30.25;;;10.82;;
69310;SDS011;56430;48.154;16.458;2023-03-04T05:40:56;31.55;;;10.68;;
69310;SDS011;56430;48.154;16.458;2023-03-04T05:43:24;33.85;;;11.20;;
69310;SDS011;56430;48.154;16.458;2023-03-04T05:45:52;32.20;;;10.90;;
69310;SDS011;56430;48.154;16.458;2023-03-04T05:48:19;29.95;;;11.48;;
69310;SDS011;56430;48.154;16.458;2023-03-04T05:50:46;32.75;;;11.25;;
69310;SDS011;56430;48.154;16.458;2023-03-04T05:53:12;29.58;;;10.77;;
69310;SDS011;56430;48.154;16.458;2023-03-04T05:55:41;29.67;;;10.90;;
69310;SDS011;56430;48.154;16.458;2023-03-04T05:58:11;27.70;;;10.27;;
69310;SDS011;56430;48.154;16.458;2023-03-04T06:00:38;30.02;;;11.38;;
69310;SDS011;56430;48.154;16.458;2023-03-04T06:03:05;31.20;;;12.00;;
69310;SDS011;56430;48.154;16.458;2023-03-04T06:05:32;30.88;;;10.25;;
69310;SDS011;56430;48.154;16.458;2023-03-04T06:07:59;30.40;;;10.02;;
69310;SDS011;56430;48.154;16.458;2023-03-04T06:10:25;27.70;;;10.60;;
69310;SDS011;56430;48.154;16.458;2023-03-04T06:12:54;33.22;;;11.68;;
69310;SDS011;56430;48.154;16.458;2023-03-04T06:15:21;30.55;;;11.10;;
69310;SDS011;56430;48.154;16.458;2023-03-04T06:17:47;31.00;;;11.75;;
69310;SDS011;56430;48.154;16.458;2023-03-04T06:20:14;36.25;;;11.60;;
69310;SDS011;56430;48.154;16.458;2023-03-04T06:22:41;34.30;;;11.30;;
69310;SDS011;56430;48.154;16.458;2023-03-04T06:25:08;27.73;;;11.05;;
69310;SDS011;56430;48.154;16.458;2023-03-04T06:27:35;26.27;;;10.43;;
69310;SDS011;56430;48.154;16.458;2023-03-04T06:30:04;32.20;;;12.27;;
69310;SDS011;56430;48.154;16.458;2023-03-04T06:32:31;30.17;;;11.40;;
69310;SDS011;56430;48.154;16.458;2023-03-04T06:34:58;28.30;;;10.73;;
69310;SDS011;56430;48.154;16.458;2023-03-04T06:37:25;28.08;;;9.40;;
69310;SDS011;56430;48.154;16.458;2023-03-04T06:39:52;35.53;;;12.32;;
69310;SDS011;56430;48.154;16.458;2023-03-04T06:42:19;26.95;;;10.10;;
69310;SDS011;56430;48.154;16.458;2023-03-04T06:44:47;31.58;;;11.57;;
69310;SDS011;56430;48.154;16.458;2023-03-04T06:47:16;32.00;;;11.17;;
69310;SDS011;56430;48.154;16.458;2023-03-04T06:49:43;32.60;;;10.75;;
69310;SDS011;56430;48.154;16.458;2023-03-04T06:52:10;29.02;;;10.55;;
69310;SDS011;56430;48.154;16.458;2023-03-04T06:54:37;31.52;;;11.75;;
69310;SDS011;56430;48.154;16.458;2023-03-04T06:57:04;32.22;;;11.75;;
69310;SDS011;56430;48.154;16.458;2023-03-04T06:59:31;28.30;;;11.70;;
69310;SDS011;56430;48.154;16.458;2023-03-04T07:01:58;32.25;;;10.63;;
69310;SDS011;56430;48.154;16.458;2023-03-04T07:04:26;32.10;;;11.52;;
69310;SDS011;56430;48.154;16.458;2023-03-04T07:06:53;29.45;;;11.38;;
69310;SDS011;56430;48.154;16.458;2023-03-04T07:09:20;31.35;;;11.48;;
69310;SDS011;56430;48.154;16.458;2023-03-04T07:11:47;32.70;;;12.27;;
69310;SDS011;56430;48.154;16.458;2023-03-04T07:14:14;38.22;;;13.27;;
69310;SDS011;56430;48.154;16.458;2023-03-04T07:16:41;36.55;;;12.82;;
69310;SDS011;56430;48.154;16.458;2023-03-04T07:19:08;33.08;;;12.88;;
69310;SDS011;56430;48.154;16.458;2023-03-04T07:21:36;28.00;;;11.50;;
69310;SDS011;56430;48.154;16.458;2023-03-04T07:24:03;30.93;;;11.73;;
69310;SDS011;56430;48.154;16.458;2023-03-04T07:26:30;33.55;;;12.70;;
69310;SDS011;56430;48.154;16.458;2023-03-04T07:28:57;33.88;;;13.82;;
69310;SDS011;56430;48.154;16.458;2023-03-04T07:31:25;36.17;;;15.48;;
69310;SDS011;56430;48.154;16.458;2023-03-04T07:33:55;38.13;;;15.70;;
69310;SDS011;56430;48.154;16.458;2023-03-04T07:36:22;44.63;;;16.00;;
69310;SDS011;56430;48.154;16.458;2023-03-04T07:38:51;37.90;;;16.95;;
69310;SDS011;56430;48.154;16.458;2023-03-04T07:41:20;43.53;;;17.13;;
69310;SDS011;56430;48.154;16.458;2023-03-04T07:43:47;42.03;;;17.80;;
69310;SDS011;56430;48.154;16.458;2023-03-04T07:46:13;41.13;;;17.27;;
69310;SDS011;56430;48.154;16.458;2023-03-04T07:48:40;40.00;;;17.70;;
69310;SDS011;56430;48.154;16.458;2023-03-04T07:51:08;38.97;;;16.80;;
69310;SDS011;56430;48.154;16.458;2023-03-04T07:53:36;36.47;;;16.08;;
69310;SDS011;56430;48.154;16.458;2023-03-04T07:56:06;36.05;;;16.55;;
69310;SDS011;56430;48.154;16.458;2023-03-04T07:58:33;40.53;;;18.88;;
69310;SDS011;56430;48.154;16.458;2023-03-04T08:01:00;40.27;;;16.73;;
69310;SDS011;56430;48.154;16.458;2023-03-04T08:03:27;38.28;;;17.08;;
69310;SDS011;56430;48.154;16.458;2023-03-04T08:05:54;36.95;;;18.73;;
69310;SDS011;56430;48.154;16.458;2023-03-04T08:08:21;36.20;;;17.92;;
69310;SDS011;56430;48.154;16.458;2023-03-04T08:10:47;38.65;;;18.88;;
69310;SDS011;56430;48.154;16.458;2023-03-04T08:13:16;38.03;;;18.70;;
69310;SDS011;56430;48.154;16.458;2023-03-04T08:15:43;39.30;;;18.67;;
69310;SDS011;56430;48.154;16.458;2023-03-04T08:18:09;40.92;;;18.20;;
69310;SDS011;56430;48.154;16.458;2023-03-04T08:20:40;36.20;;;18.65;;
69310;SDS011;56430;48.154;16.458;2023-03-04T08:23:07;35.05;;;19.20;;
69310;SDS011;56430;48.154;16.458;2023-03-04T08:25:37;34.10;;;19.50;;
69310;SDS011;56430;48.154;16.458;2023-03-04T08:28:04;34.67;;;18.35;;
69310;SDS011;56430;48.154;16.458;2023-03-04T08:30:32;34.17;;;18.40;;
69310;SDS011;56430;48.154;16.458;2023-03-04T08:32:59;35.17;;;18.77;;
69310;SDS011;56430;48.154;16.458;2023-03-04T08:35:27;33.88;;;18.63;;
69310;SDS011;56430;48.154;16.458;2023-03-04T08:37:53;34.80;;;18.60;;
69310;SDS011;56430;48.154;16.458;2023-03-04T08:40:20;34.15;;;18.00;;
69310;SDS011;56430;48.154;16.458;2023-03-04T08:42:49;31.85;;;14.85;;
69310;SDS011;56430;48.154;16.458;2023-03-04T08:45:16;34.95;;;15.98;;
69310;SDS011;56430;48.154;16.458;2023-03-04T08:47:44;32.25;;;15.85;;
69310;SDS011;56430;48.154;16.458;2023-03-04T08:50:11;29.07;;;17.07;;
69310;SDS011;56430;48.154;16.458;2023-03-04T08:52:38;33.10;;;17.27;;
69310;SDS011;56430;48.154;16.458;2023-03-04T08:55:05;29.92;;;17.95;;
69310;SDS011;56430;48.154;16.458;2023-03-04T08:57:32;30.02;;;17.55;;
69310;SDS011;56430;48.154;16.458;2023-03-04T08:59:58;31.08;;;17.65;;
69310;SDS011;56430;48.154;16.458;2023-03-04T09:02:25;28.23;;;16.57;;
69310;SDS011;56430;48.154;16.458;2023-03-04T09:04:54;28.33;;;16.53;;
69310;SDS011;56430;48.154;16.458;2023-03-04T09:07:20;35.17;;;17.58;;
69310;SDS011;56430;48.154;16.458;2023-03-04T09:09:47;29.05;;;17.60;;
69310;SDS011;56430;48.154;16.458;2023-03-04T09:12:14;28.50;;;17.10;;
69310;SDS011;56430;48.154;16.458;2023-03-04T09:14:41;29.23;;;16.30;;
69310;SDS011;56430;48.154;16.458;2023-03-04T09:17:08;29.47;;;17.07;;
69310;SDS011;56430;48.154;16.458;2023-03-04T09:19:35;25.93;;;15.87;;
69310;SDS011;56430;48.154;16.458;2023-03-04T09:22:03;27.40;;;14.85;;
69310;SDS011;56430;48.154;16.458;2023-03-04T09:24:30;28.85;;;15.38;;
69310;SDS011;56430;48.154;16.458;2023-03-04T09:26:57;28.40;;;15.00;;
69310;SDS011;56430;48.154;16.458;2023-03-04T09:29:24;29.13;;;15.77;;
69310;SDS011;56430;48.154;16.458;2023-03-04T09:31:51;28.03;;;16.07;;
69310;SDS011;56430;48.154;16.458;2023-03-04T09:34:18;28.25;;;15.90;;
69310;SDS011;56430;48.154;16.458;2023-03-04T09:36:45;27.58;;;15.43;;
69310;SDS011;56430;48.154;16.458;2023-03-04T09:39:13;25.60;;;14.43;;
69310;SDS011;56430;48.154;16.458;2023-03-04T09:41:41;27.00;;;15.75;;
69310;SDS011;56430;48.154;16.458;2023-03-04T09:44:14;27.50;;;15.63;;
69310;SDS011;56430;48.154;16.458;2023-03-04T09:46:42;23.47;;;13.23;;
69310;SDS011;56430;48.154;16.458;2023-03-04T09:49:10;26.08;;;13.20;;
69310;SDS011;56430;48.154;16.458;2023-03-04T09:51:53;23.02;;;12.55;;
69310;SDS011;56430;48.154;16.458;2023-03-04T09:54:26;24.67;;;12.77;;
69310;SDS011;56430;48.154;16.458;2023-03-04T09:56:56;20.92;;;10.82;;
69310;SDS011;56430;48.154;16.458;2023-03-04T09:59:25;26.90;;;13.05;;
69310;SDS011;56430;48.154;16.458;2023-03-04T10:01:54;21.93;;;12.30;;
69310;SDS011;56430;48.154;16.458;2023-03-04T10:04:25;19.52;;;11.43;;
69310;SDS011;56430;48.154;16.458;2023-03-04T10:06:54;19.75;;;11.77;;
69310;SDS011;56430;48.154;16.458;2023-03-04T10:09:22;18.30;;;10.75;;
69310;SDS011;56430;48.154;16.458;2023-03-04T10:11:54;14.80;;;9.25;;
69310;SDS011;56430;48.154;16.458;2023-03-04T10:14:36;19.38;;;10.35;;
69310;SDS011;56430;48.154;16.458;2023-03-04T10:17:09;21.13;;;9.50;;
69310;SDS011;56430;48.154;16.458;2023-03-04T10:19:46;17.50;;;9.13;;
69310;SDS011;56430;48.154;16.458;2023-03-04T10:25:14;16.90;;;9.57;;
69310;SDS011;56430;48.154;16.458;2023-03-04T10:27:43;20.55;;;10.05;;
69310;SDS011;56430;48.154;16.458;2023-03-04T10:30:17;17.17;;;10.43;;
69310;SDS011;56430;48.154;16.458;2023-03-04T10:32:45;16.03;;;9.10;;
69310;SDS011;56430;48.154;16.458;2023-03-04T10:35:13;20.77;;;9.52;;
69310;SDS011;56430;48.154;16.458;2023-03-04T10:37:44;19.73;;;9.52;;
69310;SDS011;56430;48.154;16.458;2023-03-04T10:40:17;18.30;;;9.20;;
69310;SDS011;56430;48.154;16.458;2023-03-04T10:42:45;27.13;;;9.50;;
69310;SDS011;56430;48.154;16.458;2023-03-04T10:45:18;16.03;;;7.67;;
69310;SDS011;56430;48.154;16.458;2023-03-04T10:47:50;13.27;;;7.33;;
69310;SDS011;56430;48.154;16.458;2023-03-04T10:50:20;19.60;;;7.55;;
69310;SDS011;56430;48.154;16.458;2023-03-04T10:52:48;13.82;;;7.53;;
69310;SDS011;56430;48.154;16.458;2023-03-04T10:55:18;16.63;;;7.75;;
69310;SDS011;56430;48.154;16.458;2023-03-04T10:57:48;14.43;;;7.43;;
69310;SDS011;56430;48.154;16.458;2023-03-04T11:00:23;13.37;;;7.13;;
69310;SDS011;56430;48.154;16.458;2023-03-04T11:02:51;19.33;;;7.10;;
69310;SDS011;56430;48.154;16.458;2023-03-04T11:05:19;18.70;;;7.90;;
69310;SDS011;56430;48.154;16.458;2023-03-04T11:07:48;14.50;;;7.13;;
69310;SDS011;56430;48.154;16.458;2023-03-04T11:10:16;15.73;;;6.93;;
69310;SDS011;56430;48.154;16.458;2023-03-04T11:12:48;15.50;;;7.63;;
69310;SDS011;56430;48.154;16.458;2023-03-04T11:15:16;16.60;;;7.80;;
69310;SDS011;56430;48.154;16.458;2023-03-04T11:17:44;16.75;;;6.72;;
69310;SDS011;56430;48.154;16.458;2023-03-04T11:20:13;17.80;;;8.40;;
69310;SDS011;56430;48.154;16.458;2023-03-04T11:25:46;15.02;;;7.28;;
69310;SDS011;56430;48.154;16.458;2023-03-04T11:28:17;15.13;;;7.30;;
69310;SDS011;56430;48.154;16.458;2023-03-04T11:30:46;15.32;;;7.05;;
69310;SDS011;56430;48.154;16.458;2023-03-04T11:33:18;14.32;;;6.97;;
69310;SDS011;56430;48.154;16.458;2023-03-04T11:35:50;14.65;;;6.45;;
69310;SDS011;56430;48.154;16.458;2023-03-04T11:38:19;13.43;;;6.18;;
69310;SDS011;56430;48.154;16.458;2023-03-04T11:40:48;16.17;;;6.73;;
69310;SDS011;56430;48.154;16.458;2023-03-04T11:43:19;13.18;;;6.30;;
69310;SDS011;56430;48.154;16.458;2023-03-04T11:45:55;13.18;;;6.13;;
69310;SDS011;56430;48.154;16.458;2023-03-04T11:48:26;12.07;;;6.25;;
69310;SDS011;56430;48.154;16.458;2023-03-04T11:50:56;11.30;;;5.30;;
69310;SDS011;56430;48.154;16.458;2023-03-04T11:56:02;12.63;;;5.93;;
69310;SDS011;56430;48.154;16.458;2023-03-04T11:58:42;14.65;;;6.38;;
69310;SDS011;56430;48.154;16.458;2023-03-04T12:01:14;11.38;;;5.65;;
69310;SDS011;56430;48.154;16.458;2023-03-04T12:03:44;12.00;;;5.80;;
69310;SDS011;56430;48.154;16.458;2023-03-04T12:06:17;13.40;;;5.93;;
69310;SDS011;56430;48.154;16.458;2023-03-04T12:08:50;13.35;;;5.78;;
69310;SDS011;56430;48.154;16.458;2023-03-04T12:11:21;12.95;;;6.10;;
69310;SDS011;56430;48.154;16.458;2023-03-04T12:14:00;15.27;;;6.20;;
69310;SDS011;56430;48.154;16.458;2023-03-04T12:16:34;14.13;;;5.70;;
69310;SDS011;56430;48.154;16.458;2023-03-04T12:19:10;14.70;;;5.97;;
69310;SDS011;56430;48.154;16.458;2023-03-04T12:21:56;13.05;;;6.55;;
69310;SDS011;56430;48.154;16.458;2023-03-04T12:24:31;13.70;;;5.90;;
69310;SDS011;56430;48.154;16.458;2023-03-04T12:27:00;11.30;;;5.55;;
69310;SDS011;56430;48.154;16.458;2023-03-04T12:29:33;14.02;;;5.90;;
69310;SDS011;56430;48.154;16.458;2023-03-04T12:32:02;12.47;;;5.57;;
69310;SDS011;56430;48.154;16.458;2023-03-04T12:34:32;12.82;;;6.15;;
69310;SDS011;56430;48.154;16.458;2023-03-04T12:37:08;13.77;;;5.95;;
69310;SDS011;56430;48.154;16.458;2023-03-04T12:39:39;12.98;;;5.60;;
69310;SDS011;56430;48.154;16.458;2023-03-04T12:42:11;13.45;;;5.90;;
69310;SDS011;56430;48.154;16.458;2023-03-04T12:44:44;11.77;;;5.83;;
69310;SDS011;56430;48.154;16.458;2023-03-04T12:47:18;13.25;;;6.05;;
69310;SDS011;56430;48.154;16.458;2023-03-04T12:49:57;14.95;;;6.45;;
69310;SDS011;56430;48.154;16.458;2023-03-04T12:52:29;16.02;;;6.55;;
69310;SDS011;56430;48.154;16.458;2023-03-04T12:54:59;13.57;;;6.50;;
69310;SDS011;56430;48.154;16.458;2023-03-04T12:57:28;14.83;;;6.60;;
69310;SDS011;56430;48.154;16.458;2023-03-04T12:59:58;15.32;;;6.00;;
69310;SDS011;56430;48.154;16.458;2023-03-04T13:02:32;13.82;;;6.35;;
69310;SDS011;56430;48.154;16.458;2023-03-04T13:05:02;17.55;;;7.13;;
69310;SDS011;56430;48.154;16.458;2023-03-04T13:07:37;15.93;;;6.68;;
69310;SDS011;56430;48.154;16.458;2023-03-04T13:10:06;19.97;;;7.77;;
69310;SDS011;56430;48.154;16.458;2023-03-04T13:12:44;19.02;;;7.65;;
69310;SDS011;56430;48.154;16.458;2023-03-04T13:15:27;19.05;;;8.18;;
69310;SDS011;56430;48.154;16.458;2023-03-04T13:17:54;16.08;;;7.65;;
69310;SDS011;56430;48.154;16.458;2023-03-04T13:20:23;18.63;;;7.00;;
69310;SDS011;56430;48.154;16.458;2023-03-04T13:22:52;14.67;;;6.67;;
69310;SDS011;56430;48.154;16.458;2023-03-04T13:25:28;16.30;;;7.03;;
69310;SDS011;56430;48.154;16.458;2023-03-04T13:36:28;17.40;;;7.77;;
69310;SDS011;56430;48.154;16.458;2023-03-04T13:38:56;14.20;;;6.30;;
69310;SDS011;56430;48.154;16.458;2023-03-04T13:41:27;20.75;;;6.63;;
69310;SDS011;56430;48.154;16.458;2023-03-04T13:43:55;13.68;;;6.28;;
69310;SDS011;56430;48.154;16.458;2023-03-04T13:46:30;18.27;;;6.68;;
69310;SDS011;56430;48.154;16.458;2023-03-04T13:49:05;12.33;;;5.57;;
69310;SDS011;56430;48.154;16.458;2023-03-04T13:51:35;14.13;;;5.68;;
69310;SDS011;56430;48.154;16.458;2023-03-04T13:54:06;16.30;;;5.90;;
69310;SDS011;56430;48.154;16.458;2023-03-04T13:56:33;15.32;;;6.20;;
69310;SDS011;56430;48.154;16.458;2023-03-04T13:59:02;13.70;;;5.93;;
69310;SDS011;56430;48.154;16.458;2023-03-04T14:01:30;14.27;;;6.33;;
69310;SDS011;56430;48.154;16.458;2023-03-04T14:03:57;16.45;;;6.93;;
69310;SDS011;56430;48.154;16.458;2023-03-04T14:06:25;16.20;;;6.85;;
69310;SDS011;56430;48.154;16.458;2023-03-04T14:08:54;16.80;;;7.22;;
69310;SDS011;56430;48.154;16.458;2023-03-04T14:11:24;16.15;;;7.80;;
69310;SDS011;56430;48.154;16.458;2023-03-04T14:13:52;18.30;;;6.73;;
69310;SDS011;56430;48.154;16.458;2023-03-04T14:16:20;17.42;;;7.30;;
69310;SDS011;56430;48.154;16.458;2023-03-04T14:18:55;16.25;;;7.40;;
69310;SDS011;56430;48.154;16.458;2023-03-04T14:21:22;17.40;;;7.28;;
69310;SDS011;56430;48.154;16.458;2023-03-04T14:23:59;16.38;;;7.03;;
69310;SDS011;56430;48.154;16.458;2023-03-04T14:26:26;17.60;;;6.97;;
69310;SDS011;56430;48.154;16.458;2023-03-04T14:28:55;17.52;;;7.90;;
69310;SDS011;56430;48.154;16.458;2023-03-04T14:31:24;14.90;;;6.93;;
69310;SDS011;56430;48.154;16.458;2023-03-04T14:33:53;16.20;;;6.90;;
69310;SDS011;56430;48.154;16.458;2023-03-04T14:36:24;13.70;;;7.07;;
69310;SDS011;56430;48.154;16.458;2023-03-04T14:38:52;15.40;;;6.93;;
69310;SDS011;56430;48.154;16.458;2023-03-04T14:41:22;15.30;;;6.95;;
69310;SDS011;56430;48.154;16.458;2023-03-04T14:43:52;15.95;;;6.90;;
69310;SDS011;56430;48.154;16.458;2023-03-04T14:46:19;17.40;;;7.15;;
69310;SDS011;56430;48.154;16.458;2023-03-04T14:48:48;14.45;;;6.40;;